sensor_id;sensor_type;location;lat;lon;timestamp;P1;durP1;ratioP1;P2;durP2;ratioP2
68455;SDS011;55437;55.046;38.838;2023-03-23T00:01:18;7.70;;;2.45;;
68455;SDS011;55437;55.046;38.838;2023-03-23T00:03:50;7.15;;;2.60;;
68455;SDS011;55437;55.046;38.838;2023-03-23T00:06:18;6.85;;;2.70;;
68455;SDS011;55437;55.046;38.838;2023-03-23T00:08:46;6.93;;;3.13;;
68455;SDS011;55437;55.046;38.838;2023-03-23T00:11:16;7.05;;;2.70;;
68455;SDS011;55437;55.046;38.838;2023-03-23T00:13:48;6.53;;;2.65;;
68455;SDS011;55437;55.046;38.838;2023-03-23T00:16:17;7.90;;;2.60;;
68455;SDS011;55437;55.046;38.838;2023-03-23T00:18:49;6.45;;;2.42;;
68455;SDS011;55437;55.046;38.838;2023-03-23T00:21:18;6.75;;;2.60;;
68455;SDS011;55437;55.046;38.838;2023-03-23T00:23:45;6.85;;;2.25;;
68455;SDS011;55437;55.046;38.838;2023-03-23T00:26:11;7.28;;;2.10;;
68455;SDS011;55437;55.046;38.838;2023-03-23T00:28:37;6.55;;;2.35;;
68455;SDS011;55437;55.046;38.838;2023-03-23T00:31:05;5.68;;;2.70;;
68455;SDS011;55437;55.046;38.838;2023-03-23T00:33:35;6.78;;;3.35;;
68455;SDS011;55437;55.046;38.838;2023-03-23T00:36:09;5.82;;;2.10;;
68455;SDS011;55437;55.046;38.838;2023-03-23T00:38:37;6.35;;;2.22;;
68455;SDS011;55437;55.046;38.838;2023-03-23T00:41:04;6.40;;;2.42;;
68455;SDS011;55437;55.046;38.838;2023-03-23T00:43:31;6.93;;;2.67;;
68455;SDS011;55437;55.046;38.838;2023-03-23T00:46:02;6.50;;;2.45;;
68455;SDS011;55437;55.046;38.838;2023-03-23T00:48:34;6.03;;;2.50;;
68455;SDS011;55437;55.046;38.838;2023-03-23T00:51:01;6.30;;;2.35;;
68455;SDS011;55437;55.046;38.838;2023-03-23T00:53:32;6.55;;;2.60;;
68455;SDS011;55437;55.046;38.838;2023-03-23T00:55:59;5.97;;;2.45;;
68455;SDS011;55437;55.046;38.838;2023-03-23T00:58:25;6.53;;;2.47;;
68455;SDS011;55437;55.046;38.838;2023-03-23T01:00:51;6.80;;;2.15;;
68455;SDS011;55437;55.046;38.838;2023-03-23T01:03:17;6.50;;;2.58;;
68455;SDS011;55437;55.046;38.838;2023-03-23T01:05:44;7.15;;;2.60;;
68455;SDS011;55437;55.046;38.838;2023-03-23T01:08:13;6.45;;;2.75;;
68455;SDS011;55437;55.046;38.838;2023-03-23T01:10:43;7.40;;;2.63;;
68455;SDS011;55437;55.046;38.838;2023-03-23T01:13:10;6.97;;;2.15;;
68455;SDS011;55437;55.046;38.838;2023-03-23T01:15:35;6.35;;;2.38;;
68455;SDS011;55437;55.046;38.838;2023-03-23T01:18:02;7.03;;;2.60;;
68455;SDS011;55437;55.046;38.838;2023-03-23T01:20:28;7.35;;;2.85;;
68455;SDS011;55437;55.046;38.838;2023-03-23T01:23:00;7.57;;;2.80;;
68455;SDS011;55437;55.046;38.838;2023-03-23T01:25:27;7.60;;;2.63;;
68455;SDS011;55437;55.046;38.838;2023-03-23T01:27:54;7.70;;;2.60;;
68455;SDS011;55437;55.046;38.838;2023-03-23T01:30:21;8.43;;;2.47;;
68455;SDS011;55437;55.046;38.838;2023-03-23T01:32:47;6.38;;;2.90;;
68455;SDS011;55437;55.046;38.838;2023-03-23T01:35:13;6.50;;;2.80;;
68455;SDS011;55437;55.046;38.838;2023-03-23T01:37:40;7.30;;;2.83;;
68455;SDS011;55437;55.046;38.838;2023-03-23T01:40:09;6.32;;;2.53;;
68455;SDS011;55437;55.046;38.838;2023-03-23T01:42:37;7.93;;;2.90;;
68455;SDS011;55437;55.046;38.838;2023-03-23T01:53:46;6.43;;;2.53;;
68455;SDS011;55437;55.046;38.838;2023-03-23T01:56:17;8.15;;;2.90;;
68455;SDS011;55437;55.046;38.838;2023-03-23T01:58:51;7.60;;;3.95;;
68455;SDS011;55437;55.046;38.838;2023-03-23T02:01:19;8.40;;;2.90;;
68455;SDS011;55437;55.046;38.838;2023-03-23T02:03:50;7.70;;;2.78;;
68455;SDS011;55437;55.046;38.838;2023-03-23T02:06:18;7.90;;;2.92;;
68455;SDS011;55437;55.046;38.838;2023-03-23T02:09:04;7.20;;;2.75;;
68455;SDS011;55437;55.046;38.838;2023-03-23T02:11:31;7.03;;;3.28;;
68455;SDS011;55437;55.046;38.838;2023-03-23T02:14:04;8.38;;;2.88;;
68455;SDS011;55437;55.046;38.838;2023-03-23T02:16:41;7.95;;;3.25;;
68455;SDS011;55437;55.046;38.838;2023-03-23T02:24:54;9.25;;;3.13;;
68455;SDS011;55437;55.046;38.838;2023-03-23T02:34:06;10.38;;;3.10;;
68455;SDS011;55437;55.046;38.838;2023-03-23T02:38:55;8.93;;;3.70;;
68455;SDS011;55437;55.046;38.838;2023-03-23T02:42:18;9.77;;;4.80;;
68455;SDS011;55437;55.046;38.838;2023-03-23T02:44:33;12.55;;;3.63;;
68455;SDS011;55437;55.046;38.838;2023-03-23T02:47:04;9.88;;;3.50;;
68455;SDS011;55437;55.046;38.838;2023-03-23T02:49:34;9.68;;;3.47;;
68455;SDS011;55437;55.046;38.838;2023-03-23T02:52:04;9.75;;;4.10;;
68455;SDS011;55437;55.046;38.838;2023-03-23T02:54:34;11.82;;;3.65;;
68455;SDS011;55437;55.046;38.838;2023-03-23T02:57:03;8.18;;;3.40;;
68455;SDS011;55437;55.046;38.838;2023-03-23T02:59:30;9.35;;;3.38;;
68455;SDS011;55437;55.046;38.838;2023-03-23T03:02:03;9.32;;;3.53;;
68455;SDS011;55437;55.046;38.838;2023-03-23T03:04:36;10.00;;;3.63;;
68455;SDS011;55437;55.046;38.838;2023-03-23T03:07:15;9.80;;;3.65;;
68455;SDS011;55437;55.046;38.838;2023-03-23T03:13:06;9.65;;;3.92;;
68455;SDS011;55437;55.046;38.838;2023-03-23T03:15:44;11.18;;;3.58;;
68455;SDS011;55437;55.046;38.838;2023-03-23T03:18:22;8.98;;;3.70;;
68455;SDS011;55437;55.046;38.838;2023-03-23T03:20:54;11.52;;;4.18;;
68455;SDS011;55437;55.046;38.838;2023-03-23T03:23:26;10.45;;;4.22;;
68455;SDS011;55437;55.046;38.838;2023-03-23T03:25:57;9.20;;;3.72;;
68455;SDS011;55437;55.046;38.838;2023-03-23T03:28:36;12.38;;;3.70;;
68455;SDS011;55437;55.046;38.838;2023-03-23T03:31:03;10.63;;;3.88;;
68455;SDS011;55437;55.046;38.838;2023-03-23T03:33:32;13.30;;;4.57;;
68455;SDS011;55437;55.046;38.838;2023-03-23T03:36:00;11.73;;;3.65;;
68455;SDS011;55437;55.046;38.838;2023-03-23T03:38:43;9.70;;;4.10;;
68455;SDS011;55437;55.046;38.838;2023-03-23T03:41:10;9.60;;;3.90;;
68455;SDS011;55437;55.046;38.838;2023-03-23T03:43:37;12.40;;;4.00;;
68455;SDS011;55437;55.046;38.838;2023-03-23T03:46:04;12.63;;;5.13;;
68455;SDS011;55437;55.046;38.838;2023-03-23T03:48:31;16.85;;;4.85;;
68455;SDS011;55437;55.046;38.838;2023-03-23T03:50:57;10.77;;;4.07;;
68455;SDS011;55437;55.046;38.838;2023-03-23T03:53:27;12.30;;;4.22;;
68455;SDS011;55437;55.046;38.838;2023-03-23T03:56:19;12.82;;;4.80;;
68455;SDS011;55437;55.046;38.838;2023-03-23T03:58:59;12.77;;;5.38;;
68455;SDS011;55437;55.046;38.838;2023-03-23T04:01:45;10.88;;;4.63;;
68455;SDS011;55437;55.046;38.838;2023-03-23T04:04:30;13.85;;;4.82;;
68455;SDS011;55437;55.046;38.838;2023-03-23T04:06:55;13.57;;;4.93;;
68455;SDS011;55437;55.046;38.838;2023-03-23T04:09:23;13.85;;;5.03;;
68455;SDS011;55437;55.046;38.838;2023-03-23T04:11:52;12.32;;;5.10;;
68455;SDS011;55437;55.046;38.838;2023-03-23T04:14:49;14.75;;;5.13;;
68455;SDS011;55437;55.046;38.838;2023-03-23T04:17:17;12.52;;;5.38;;
68455;SDS011;55437;55.046;38.838;2023-03-23T04:19:43;11.70;;;5.20;;
68455;SDS011;55437;55.046;38.838;2023-03-23T04:22:11;13.38;;;5.10;;
68455;SDS011;55437;55.046;38.838;2023-03-23T04:24:37;13.05;;;5.40;;
68455;SDS011;55437;55.046;38.838;2023-03-23T04:27:07;12.23;;;5.15;;
68455;SDS011;55437;55.046;38.838;2023-03-23T04:29:35;12.95;;;6.25;;
68455;SDS011;55437;55.046;38.838;2023-03-23T04:32:20;14.82;;;5.78;;
68455;SDS011;55437;55.046;38.838;2023-03-23T04:34:53;14.40;;;5.75;;
68455;SDS011;55437;55.046;38.838;2023-03-23T04:37:50;17.13;;;6.18;;
68455;SDS011;55437;55.046;38.838;2023-03-23T04:40:19;15.82;;;6.20;;
68455;SDS011;55437;55.046;38.838;2023-03-23T04:43:09;13.88;;;7.30;;
68455;SDS011;55437;55.046;38.838;2023-03-23T04:45:57;13.10;;;5.85;;
68455;SDS011;55437;55.046;38.838;2023-03-23T04:48:28;15.63;;;6.05;;
68455;SDS011;55437;55.046;38.838;2023-03-23T04:51:06;18.70;;;6.22;;
68455;SDS011;55437;55.046;38.838;2023-03-23T04:53:57;17.35;;;6.63;;
68455;SDS011;55437;55.046;38.838;2023-03-23T04:56:23;14.38;;;6.30;;
68455;SDS011;55437;55.046;38.838;2023-03-23T04:58:51;15.45;;;6.40;;
68455;SDS011;55437;55.046;38.838;2023-03-23T05:01:40;15.02;;;6.80;;
68455;SDS011;55437;55.046;38.838;2023-03-23T05:04:19;16.05;;;6.45;;
68455;SDS011;55437;55.046;38.838;2023-03-23T05:06:59;15.23;;;5.97;;
68455;SDS011;55437;55.046;38.838;2023-03-23T05:09:32;17.77;;;6.50;;
68455;SDS011;55437;55.046;38.838;2023-03-23T05:12:03;14.93;;;7.18;;
68455;SDS011;55437;55.046;38.838;2023-03-23T05:14:33;17.60;;;6.68;;
68455;SDS011;55437;55.046;38.838;2023-03-23T05:17:08;16.52;;;7.63;;
68455;SDS011;55437;55.046;38.838;2023-03-23T05:19:35;14.60;;;6.60;;
68455;SDS011;55437;55.046;38.838;2023-03-23T05:22:10;14.07;;;6.53;;
68455;SDS011;55437;55.046;38.838;2023-03-23T05:24:45;15.77;;;8.13;;
68455;SDS011;55437;55.046;38.838;2023-03-23T05:27:10;14.35;;;5.75;;
68455;SDS011;55437;55.046;38.838;2023-03-23T05:29:42;13.85;;;5.85;;
68455;SDS011;55437;55.046;38.838;2023-03-23T05:32:07;12.90;;;6.13;;
68455;SDS011;55437;55.046;38.838;2023-03-23T05:35:03;15.13;;;6.05;;
68455;SDS011;55437;55.046;38.838;2023-03-23T05:37:30;12.85;;;5.75;;
68455;SDS011;55437;55.046;38.838;2023-03-23T05:40:06;16.30;;;5.75;;
68455;SDS011;55437;55.046;38.838;2023-03-23T05:42:44;10.65;;;5.03;;
68455;SDS011;55437;55.046;38.838;2023-03-23T05:45:29;13.82;;;6.22;;
68455;SDS011;55437;55.046;38.838;2023-03-23T05:47:55;14.30;;;5.88;;
68455;SDS011;55437;55.046;38.838;2023-03-23T05:50:25;12.38;;;5.25;;
68455;SDS011;55437;55.046;38.838;2023-03-23T05:52:52;13.60;;;5.50;;
68455;SDS011;55437;55.046;38.838;2023-03-23T05:55:19;10.35;;;5.45;;
68455;SDS011;55437;55.046;38.838;2023-03-23T05:57:55;13.90;;;6.68;;
68455;SDS011;55437;55.046;38.838;2023-03-23T06:00:35;13.57;;;6.30;;
68455;SDS011;55437;55.046;38.838;2023-03-23T06:03:17;11.85;;;5.68;;
68455;SDS011;55437;55.046;38.838;2023-03-23T06:05:52;11.82;;;5.68;;
68455;SDS011;55437;55.046;38.838;2023-03-23T06:11:12;14.48;;;5.93;;
68455;SDS011;55437;55.046;38.838;2023-03-23T06:16:38;12.38;;;5.55;;
68455;SDS011;55437;55.046;38.838;2023-03-23T06:19:07;12.13;;;6.07;;
68455;SDS011;55437;55.046;38.838;2023-03-23T06:21:36;12.18;;;5.72;;
68455;SDS011;55437;55.046;38.838;2023-03-23T06:24:33;12.13;;;6.13;;
68455;SDS011;55437;55.046;38.838;2023-03-23T06:27:00;12.48;;;5.90;;
68455;SDS011;55437;55.046;38.838;2023-03-23T06:29:26;13.23;;;6.63;;
68455;SDS011;55437;55.046;38.838;2023-03-23T06:31:56;13.30;;;7.47;;
68455;SDS011;55437;55.046;38.838;2023-03-23T06:34:27;15.75;;;7.00;;
68455;SDS011;55437;55.046;38.838;2023-03-23T06:37:21;11.77;;;6.10;;
68455;SDS011;55437;55.046;38.838;2023-03-23T06:40:07;13.68;;;6.85;;
68455;SDS011;55437;55.046;38.838;2023-03-23T06:42:38;12.85;;;6.20;;
68455;SDS011;55437;55.046;38.838;2023-03-23T06:45:33;14.25;;;7.40;;
68455;SDS011;55437;55.046;38.838;2023-03-23T06:48:18;16.23;;;7.45;;
68455;SDS011;55437;55.046;38.838;2023-03-23T06:50:46;15.02;;;6.88;;
68455;SDS011;55437;55.046;38.838;2023-03-23T06:53:15;13.95;;;7.60;;
68455;SDS011;55437;55.046;38.838;2023-03-23T06:55:43;14.13;;;6.93;;
68455;SDS011;55437;55.046;38.838;2023-03-23T06:58:10;16.02;;;7.35;;
68455;SDS011;55437;55.046;38.838;2023-03-23T07:01:20;16.80;;;8.15;;
68455;SDS011;55437;55.046;38.838;2023-03-23T07:03:56;14.40;;;7.40;;
68455;SDS011;55437;55.046;38.838;2023-03-23T07:06:35;14.25;;;7.55;;
68455;SDS011;55437;55.046;38.838;2023-03-23T07:09:01;17.20;;;8.25;;
68455;SDS011;55437;55.046;38.838;2023-03-23T07:11:31;15.73;;;8.23;;
68455;SDS011;55437;55.046;38.838;2023-03-23T07:14:02;15.55;;;8.73;;
68455;SDS011;55437;55.046;38.838;2023-03-23T07:16:28;18.42;;;8.63;;
68455;SDS011;55437;55.046;38.838;2023-03-23T07:18:54;17.02;;;8.38;;
68455;SDS011;55437;55.046;38.838;2023-03-23T07:21:20;16.10;;;8.05;;
68455;SDS011;55437;55.046;38.838;2023-03-23T07:23:47;14.55;;;8.32;;
68455;SDS011;55437;55.046;38.838;2023-03-23T07:26:41;16.30;;;9.20;;
68455;SDS011;55437;55.046;38.838;2023-03-23T07:29:08;15.95;;;9.30;;
68455;SDS011;55437;55.046;38.838;2023-03-23T07:31:40;20.08;;;11.32;;
68455;SDS011;55437;55.046;38.838;2023-03-23T07:34:06;17.90;;;9.85;;
68455;SDS011;55437;55.046;38.838;2023-03-23T07:36:43;18.50;;;8.90;;
68455;SDS011;55437;55.046;38.838;2023-03-23T07:39:10;18.17;;;9.38;;
68455;SDS011;55437;55.046;38.838;2023-03-23T07:41:47;17.48;;;8.88;;
68455;SDS011;55437;55.046;38.838;2023-03-23T07:44:20;17.50;;;9.63;;
68455;SDS011;55437;55.046;38.838;2023-03-23T07:46:49;19.52;;;9.93;;
68455;SDS011;55437;55.046;38.838;2023-03-23T07:49:19;16.48;;;9.20;;
68455;SDS011;55437;55.046;38.838;2023-03-23T07:51:55;16.17;;;8.80;;
68455;SDS011;55437;55.046;38.838;2023-03-23T07:54:21;18.08;;;10.68;;
68455;SDS011;55437;55.046;38.838;2023-03-23T07:56:59;16.83;;;8.93;;
68455;SDS011;55437;55.046;38.838;2023-03-23T07:59:28;17.63;;;9.43;;
68455;SDS011;55437;55.046;38.838;2023-03-23T08:01:58;17.33;;;8.70;;
68455;SDS011;55437;55.046;38.838;2023-03-23T08:04:44;18.27;;;8.98;;
68455;SDS011;55437;55.046;38.838;2023-03-23T08:07:29;17.60;;;9.23;;
68455;SDS011;55437;55.046;38.838;2023-03-23T08:10:30;15.68;;;8.70;;
68455;SDS011;55437;55.046;38.838;2023-03-23T08:13:42;19.80;;;8.90;;
68455;SDS011;55437;55.046;38.838;2023-03-23T08:16:26;18.63;;;10.73;;
68455;SDS011;55437;55.046;38.838;2023-03-23T08:19:07;19.02;;;10.02;;
68455;SDS011;55437;55.046;38.838;2023-03-23T08:21:52;17.52;;;8.80;;
68455;SDS011;55437;55.046;38.838;2023-03-23T08:24:23;18.40;;;9.10;;
68455;SDS011;55437;55.046;38.838;2023-03-23T08:27:15;19.95;;;10.68;;
68455;SDS011;55437;55.046;38.838;2023-03-23T08:30:00;18.63;;;9.63;;
68455;SDS011;55437;55.046;38.838;2023-03-23T08:32:41;18.58;;;9.88;;
68455;SDS011;55437;55.046;38.838;2023-03-23T08:35:40;18.92;;;9.45;;
68455;SDS011;55437;55.046;38.838;2023-03-23T08:38:27;19.27;;;9.90;;
68455;SDS011;55437;55.046;38.838;2023-03-23T08:41:15;19.25;;;10.35;;
68455;SDS011;55437;55.046;38.838;2023-03-23T08:44:04;18.17;;;10.02;;
68455;SDS011;55437;55.046;38.838;2023-03-23T08:46:50;19.42;;;10.60;;
68455;SDS011;55437;55.046;38.838;2023-03-23T08:49:40;19.15;;;9.52;;
68455;SDS011;55437;55.046;38.838;2023-03-23T08:52:25;20.80;;;10.65;;
68455;SDS011;55437;55.046;38.838;2023-03-23T08:55:11;17.48;;;9.57;;
68455;SDS011;55437;55.046;38.838;2023-03-23T08:58:10;20.42;;;9.77;;
68455;SDS011;55437;55.046;38.838;2023-03-23T09:00:54;21.42;;;11.15;;
68455;SDS011;55437;55.046;38.838;2023-03-23T09:03:28;23.58;;;11.30;;
68455;SDS011;55437;55.046;38.838;2023-03-23T09:06:11;21.67;;;10.15;;
68455;SDS011;55437;55.046;38.838;2023-03-23T09:08:47;21.95;;;11.10;;
68455;SDS011;55437;55.046;38.838;2023-03-23T09:11:15;21.55;;;11.50;;
68455;SDS011;55437;55.046;38.838;2023-03-23T09:13:41;25.30;;;11.43;;
68455;SDS011;55437;55.046;38.838;2023-03-23T09:19:09;24.38;;;11.07;;
68455;SDS011;55437;55.046;38.838;2023-03-23T09:21:35;25.38;;;11.43;;
68455;SDS011;55437;55.046;38.838;2023-03-23T09:24:01;22.02;;;10.77;;
68455;SDS011;55437;55.046;38.838;2023-03-23T09:26:27;26.15;;;10.82;;
68455;SDS011;55437;55.046;38.838;2023-03-23T09:28:53;21.30;;;11.18;;
68455;SDS011;55437;55.046;38.838;2023-03-23T09:31:22;25.88;;;11.30;;
68455;SDS011;55437;55.046;38.838;2023-03-23T09:33:49;23.98;;;11.15;;
68455;SDS011;55437;55.046;38.838;2023-03-23T09:36:18;23.25;;;10.55;;
68455;SDS011;55437;55.046;38.838;2023-03-23T09:38:46;22.13;;;10.10;;
68455;SDS011;55437;55.046;38.838;2023-03-23T09:41:30;22.52;;;10.05;;
68455;SDS011;55437;55.046;38.838;2023-03-23T09:47:09;23.10;;;10.68;;
68455;SDS011;55437;55.046;38.838;2023-03-23T09:49:46;21.02;;;10.50;;
68455;SDS011;55437;55.046;38.838;2023-03-23T09:52:18;24.52;;;11.65;;
68455;SDS011;55437;55.046;38.838;2023-03-23T09:54:46;21.60;;;10.90;;
68455;SDS011;55437;55.046;38.838;2023-03-23T10:00:24;22.42;;;11.75;;
68455;SDS011;55437;55.046;38.838;2023-03-23T10:03:02;22.10;;;10.77;;
68455;SDS011;55437;55.046;38.838;2023-03-23T10:05:34;24.27;;;10.77;;
68455;SDS011;55437;55.046;38.838;2023-03-23T10:08:05;20.95;;;11.38;;
68455;SDS011;55437;55.046;38.838;2023-03-23T10:10:44;22.00;;;10.52;;
68455;SDS011;55437;55.046;38.838;2023-03-23T10:16:36;21.98;;;10.07;;
68455;SDS011;55437;55.046;38.838;2023-03-23T10:19:18;20.95;;;10.88;;
68455;SDS011;55437;55.046;38.838;2023-03-23T10:21:47;19.75;;;9.32;;
68455;SDS011;55437;55.046;38.838;2023-03-23T10:24:23;18.48;;;9.35;;
68455;SDS011;55437;55.046;38.838;2023-03-23T10:27:02;18.13;;;8.57;;
68455;SDS011;55437;55.046;38.838;2023-03-23T10:29:35;18.08;;;9.48;;
68455;SDS011;55437;55.046;38.838;2023-03-23T10:32:14;16.80;;;9.27;;
68455;SDS011;55437;55.046;38.838;2023-03-23T10:34:55;19.13;;;9.77;;
68455;SDS011;55437;55.046;38.838;2023-03-23T10:37:25;23.95;;;11.02;;
68455;SDS011;55437;55.046;38.838;2023-03-23T10:39:57;19.05;;;9.98;;
68455;SDS011;55437;55.046;38.838;2023-03-23T10:42:30;21.90;;;9.70;;
68455;SDS011;55437;55.046;38.838;2023-03-23T10:44:59;18.52;;;9.88;;
68455;SDS011;55437;55.046;38.838;2023-03-23T10:47:35;21.15;;;10.00;;
68455;SDS011;55437;55.046;38.838;2023-03-23T10:52:40;21.90;;;10.95;;
68455;SDS011;55437;55.046;38.838;2023-03-23T10:55:09;23.15;;;11.57;;
68455;SDS011;55437;55.046;38.838;2023-03-23T10:57:59;19.70;;;10.70;;
68455;SDS011;55437;55.046;38.838;2023-03-23T11:00:27;20.48;;;10.07;;
68455;SDS011;55437;55.046;38.838;2023-03-23T11:03:02;21.05;;;10.75;;
68455;SDS011;55437;55.046;38.838;2023-03-23T11:05:58;22.00;;;11.13;;
68455;SDS011;55437;55.046;38.838;2023-03-23T11:08:28;22.60;;;10.63;;
68455;SDS011;55437;55.046;38.838;2023-03-23T11:11:11;20.88;;;11.00;;
68455;SDS011;55437;55.046;38.838;2023-03-23T11:14:11;19.02;;;9.60;;
68455;SDS011;55437;55.046;38.838;2023-03-23T11:19:28;26.02;;;12.85;;
68455;SDS011;55437;55.046;38.838;2023-03-23T11:24:31;20.95;;;9.35;;
68455;SDS011;55437;55.046;38.838;2023-03-23T11:27:02;20.17;;;10.23;;
68455;SDS011;55437;55.046;38.838;2023-03-23T11:29:33;18.98;;;9.32;;
68455;SDS011;55437;55.046;38.838;2023-03-23T11:32:09;23.30;;;9.75;;
68455;SDS011;55437;55.046;38.838;2023-03-23T11:35:02;17.80;;;8.93;;
68455;SDS011;55437;55.046;38.838;2023-03-23T11:37:50;20.92;;;9.95;;
68455;SDS011;55437;55.046;38.838;2023-03-23T11:40:21;20.67;;;9.55;;
68455;SDS011;55437;55.046;38.838;2023-03-23T11:45:20;18.52;;;9.25;;
68455;SDS011;55437;55.046;38.838;2023-03-23T11:56:17;18.77;;;9.07;;
68455;SDS011;55437;55.046;38.838;2023-03-23T11:58:50;28.10;;;11.45;;
68455;SDS011;55437;55.046;38.838;2023-03-23T12:34:57;21.33;;;9.65;;
68455;SDS011;55437;55.046;38.838;2023-03-23T12:40:06;19.45;;;9.25;;
68455;SDS011;55437;55.046;38.838;2023-03-23T12:45:23;21.38;;;9.20;;
68455;SDS011;55437;55.046;38.838;2023-03-23T12:48:33;21.02;;;10.00;;
68455;SDS011;55437;55.046;38.838;2023-03-23T12:53:38;20.05;;;9.82;;
68455;SDS011;55437;55.046;38.838;2023-03-23T12:59:47;22.48;;;10.70;;
68455;SDS011;55437;55.046;38.838;2023-03-23T13:02:21;22.85;;;11.27;;
68455;SDS011;55437;55.046;38.838;2023-03-23T13:05:03;24.10;;;11.02;;
68455;SDS011;55437;55.046;38.838;2023-03-23T13:07:41;23.23;;;10.40;;
68455;SDS011;55437;55.046;38.838;2023-03-23T13:12:56;22.10;;;10.50;;
68455;SDS011;55437;55.046;38.838;2023-03-23T13:15:56;23.60;;;11.13;;
68455;SDS011;55437;55.046;38.838;2023-03-23T13:21:27;23.17;;;11.65;;
68455;SDS011;55437;55.046;38.838;2023-03-23T13:23:57;26.52;;;12.32;;
68455;SDS011;55437;55.046;38.838;2023-03-23T13:26:38;27.08;;;11.93;;
68455;SDS011;55437;55.046;38.838;2023-03-23T13:29:09;23.40;;;11.20;;
68455;SDS011;55437;55.046;38.838;2023-03-23T13:31:50;22.77;;;11.07;;
68455;SDS011;55437;55.046;38.838;2023-03-23T13:34:24;22.42;;;11.52;;
68455;SDS011;55437;55.046;38.838;2023-03-23T13:36:56;31.15;;;12.32;;
68455;SDS011;55437;55.046;38.838;2023-03-23T13:39:26;21.23;;;10.38;;
68455;SDS011;55437;55.046;38.838;2023-03-23T13:42:03;26.17;;;12.70;;
68455;SDS011;55437;55.046;38.838;2023-03-23T13:44:56;19.88;;;9.52;;
68455;SDS011;55437;55.046;38.838;2023-03-23T13:47:39;21.55;;;10.50;;
68455;SDS011;55437;55.046;38.838;2023-03-23T13:53:24;19.30;;;9.40;;
68455;SDS011;55437;55.046;38.838;2023-03-23T13:56:36;19.65;;;10.05;;
68455;SDS011;55437;55.046;38.838;2023-03-23T13:59:17;22.65;;;9.85;;
68455;SDS011;55437;55.046;38.838;2023-03-23T14:01:54;18.58;;;8.85;;
68455;SDS011;55437;55.046;38.838;2023-03-23T14:04:21;15.70;;;8.57;;
68455;SDS011;55437;55.046;38.838;2023-03-23T14:06:52;18.52;;;9.15;;
68455;SDS011;55437;55.046;38.838;2023-03-23T14:09:39;16.45;;;8.20;;
68455;SDS011;55437;55.046;38.838;2023-03-23T14:12:16;15.73;;;7.15;;
68455;SDS011;55437;55.046;38.838;2023-03-23T14:14:49;15.40;;;6.88;;
68455;SDS011;55437;55.046;38.838;2023-03-23T14:17:26;16.90;;;7.82;;
68455;SDS011;55437;55.046;38.838;2023-03-23T14:19:57;15.40;;;7.45;;
68455;SDS011;55437;55.046;38.838;2023-03-23T14:22:35;14.90;;;6.72;;
68455;SDS011;55437;55.046;38.838;2023-03-23T14:25:08;17.75;;;7.50;;
68455;SDS011;55437;55.046;38.838;2023-03-23T14:27:40;16.38;;;7.38;;
68455;SDS011;55437;55.046;38.838;2023-03-23T14:30:13;15.35;;;6.85;;
68455;SDS011;55437;55.046;38.838;2023-03-23T14:32:47;15.30;;;6.60;;
68455;SDS011;55437;55.046;38.838;2023-03-23T14:35:24;10.93;;;6.45;;
68455;SDS011;55437;55.046;38.838;2023-03-23T14:37:55;10.85;;;5.40;;
68455;SDS011;55437;55.046;38.838;2023-03-23T14:40:25;13.40;;;6.03;;
68455;SDS011;55437;55.046;38.838;2023-03-23T14:42:53;13.73;;;6.22;;
68455;SDS011;55437;55.046;38.838;2023-03-23T14:45:21;11.15;;;7.40;;
68455;SDS011;55437;55.046;38.838;2023-03-23T14:48:06;11.75;;;4.97;;
68455;SDS011;55437;55.046;38.838;2023-03-23T14:50:37;10.95;;;5.32;;
68455;SDS011;55437;55.046;38.838;2023-03-23T14:55:50;11.52;;;5.43;;
68455;SDS011;55437;55.046;38.838;2023-03-23T14:58:21;9.80;;;4.25;;
68455;SDS011;55437;55.046;38.838;2023-03-23T15:03:27;12.10;;;5.13;;
68455;SDS011;55437;55.046;38.838;2023-03-23T15:05:59;10.18;;;4.43;;
68455;SDS011;55437;55.046;38.838;2023-03-23T15:08:29;12.07;;;4.40;;
68455;SDS011;55437;55.046;38.838;2023-03-23T15:11:01;11.68;;;5.07;;
68455;SDS011;55437;55.046;38.838;2023-03-23T15:13:28;13.57;;;7.90;;
68455;SDS011;55437;55.046;38.838;2023-03-23T15:16:05;14.40;;;6.63;;
68455;SDS011;55437;55.046;38.838;2023-03-23T15:18:38;14.27;;;6.28;;
68455;SDS011;55437;55.046;38.838;2023-03-23T15:21:11;11.85;;;5.93;;
68455;SDS011;55437;55.046;38.838;2023-03-23T15:23:47;10.82;;;4.47;;
68455;SDS011;55437;55.046;38.838;2023-03-23T15:26:24;10.15;;;4.40;;
68455;SDS011;55437;55.046;38.838;2023-03-23T15:29:02;11.48;;;5.78;;
68455;SDS011;55437;55.046;38.838;2023-03-23T15:32:02;9.60;;;4.25;;
68455;SDS011;55437;55.046;38.838;2023-03-23T15:34:30;10.65;;;4.70;;
68455;SDS011;55437;55.046;38.838;2023-03-23T15:37:02;11.10;;;4.70;;
68455;SDS011;55437;55.046;38.838;2023-03-23T15:39:31;10.68;;;4.72;;
68455;SDS011;55437;55.046;38.838;2023-03-23T15:41:58;12.55;;;5.10;;
68455;SDS011;55437;55.046;38.838;2023-03-23T15:44:31;12.10;;;6.38;;
68455;SDS011;55437;55.046;38.838;2023-03-23T15:47:04;11.80;;;4.70;;
68455;SDS011;55437;55.046;38.838;2023-03-23T15:49:39;11.75;;;6.45;;
68455;SDS011;55437;55.046;38.838;2023-03-23T15:54:56;10.77;;;5.00;;
68455;SDS011;55437;55.046;38.838;2023-03-23T15:57:22;14.60;;;6.13;;
68455;SDS011;55437;55.046;38.838;2023-03-23T15:59:49;12.55;;;7.82;;
68455;SDS011;55437;55.046;38.838;2023-03-23T16:02:17;12.35;;;6.40;;
68455;SDS011;55437;55.046;38.838;2023-03-23T16:04:49;12.13;;;5.97;;
68455;SDS011;55437;55.046;38.838;2023-03-23T16:07:19;13.07;;;6.18;;
68455;SDS011;55437;55.046;38.838;2023-03-23T16:09:47;15.32;;;7.13;;
68455;SDS011;55437;55.046;38.838;2023-03-23T16:12:14;17.90;;;6.45;;
68455;SDS011;55437;55.046;38.838;2023-03-23T16:14:41;16.20;;;8.50;;
68455;SDS011;55437;55.046;38.838;2023-03-23T16:17:18;15.45;;;7.40;;
68455;SDS011;55437;55.046;38.838;2023-03-23T16:19:44;12.45;;;6.18;;
68455;SDS011;55437;55.046;38.838;2023-03-23T16:22:11;10.73;;;5.30;;
68455;SDS011;55437;55.046;38.838;2023-03-23T16:24:37;12.85;;;6.25;;
68455;SDS011;55437;55.046;38.838;2023-03-23T16:27:03;13.23;;;6.68;;
68455;SDS011;55437;55.046;38.838;2023-03-23T16:29:30;10.25;;;5.07;;
68455;SDS011;55437;55.046;38.838;2023-03-23T16:31:56;13.68;;;5.70;;
68455;SDS011;55437;55.046;38.838;2023-03-23T16:34:25;11.50;;;5.88;;
68455;SDS011;55437;55.046;38.838;2023-03-23T16:36:54;14.35;;;5.68;;
68455;SDS011;55437;55.046;38.838;2023-03-23T16:39:20;11.68;;;6.43;;
68455;SDS011;55437;55.046;38.838;2023-03-23T16:41:48;11.65;;;5.22;;
68455;SDS011;55437;55.046;38.838;2023-03-23T16:44:13;16.77;;;9.00;;
68455;SDS011;55437;55.046;38.838;2023-03-23T16:46:42;12.70;;;6.05;;
68455;SDS011;55437;55.046;38.838;2023-03-23T16:49:07;15.52;;;6.72;;
68455;SDS011;55437;55.046;38.838;2023-03-23T16:51:36;13.10;;;6.63;;
68455;SDS011;55437;55.046;38.838;2023-03-23T16:54:04;13.07;;;5.68;;
68455;SDS011;55437;55.046;38.838;2023-03-23T16:56:31;10.80;;;5.70;;
68455;SDS011;55437;55.046;38.838;2023-03-23T16:58:58;14.30;;;6.35;;
68455;SDS011;55437;55.046;38.838;2023-03-23T17:01:26;13.55;;;6.68;;
68455;SDS011;55437;55.046;38.838;2023-03-23T17:03:52;13.48;;;5.57;;
68455;SDS011;55437;55.046;38.838;2023-03-23T17:06:18;13.35;;;6.53;;